sensor_id;sensor_type;location;lat;lon;timestamp;P1;durP1;ratioP1;P2;durP2;ratioP2
31652;SDS011;18261;53.648;9.910;2022-09-29T00:00:11;23.60;;;15.18;;
31652;SDS011;18261;53.648;9.910;2022-09-29T00:02:37;23.77;;;16.05;;
31652;SDS011;18261;53.648;9.910;2022-09-29T00:05:03;28.48;;;16.35;;
31652;SDS011;18261;53.648;9.910;2022-09-29T00:07:29;26.40;;;16.02;;
31652;SDS011;18261;53.648;9.910;2022-09-29T00:09:58;28.23;;;16.75;;
31652;SDS011;18261;53.648;9.910;2022-09-29T00:12:24;26.85;;;15.27;;
31652;SDS011;18261;53.648;9.910;2022-09-29T00:14:50;21.55;;;14.65;;
31652;SDS011;18261;53.648;9.910;2022-09-29T00:17:16;26.13;;;15.75;;
31652;SDS011;18261;53.648;9.910;2022-09-29T00:19:42;24.35;;;15.90;;
31652;SDS011;18261;53.648;9.910;2022-09-29T00:22:08;26.55;;;15.85;;
31652;SDS011;18261;53.648;9.910;2022-09-29T00:24:34;23.00;;;16.08;;
31652;SDS011;18261;53.648;9.910;2022-09-29T00:27:00;23.83;;;15.35;;
31652;SDS011;18261;53.648;9.910;2022-09-29T00:29:26;26.17;;;16.05;;
31652;SDS011;18261;53.648;9.910;2022-09-29T00:31:53;24.83;;;15.98;;
31652;SDS011;18261;53.648;9.910;2022-09-29T00:34:19;27.48;;;15.50;;
31652;SDS011;18261;53.648;9.910;2022-09-29T00:36:45;26.05;;;16.15;;
31652;SDS011;18261;53.648;9.910;2022-09-29T00:39:11;31.02;;;16.27;;
31652;SDS011;18261;53.648;9.910;2022-09-29T00:41:37;26.98;;;16.17;;
31652;SDS011;18261;53.648;9.910;2022-09-29T00:44:04;27.58;;;16.95;;
31652;SDS011;18261;53.648;9.910;2022-09-29T00:51:43;26.50;;;16.55;;
31652;SDS011;18261;53.648;9.910;2022-09-29T00:54:10;25.15;;;16.08;;
31652;SDS011;18261;53.648;9.910;2022-09-29T00:56:36;23.73;;;14.90;;
31652;SDS011;18261;53.648;9.910;2022-09-29T00:59:05;24.30;;;14.98;;
31652;SDS011;18261;53.648;9.910;2022-09-29T01:01:32;24.88;;;15.13;;
31652;SDS011;18261;53.648;9.910;2022-09-29T01:04:03;25.23;;;16.15;;
31652;SDS011;18261;53.648;9.910;2022-09-29T01:06:32;27.15;;;15.77;;
31652;SDS011;18261;53.648;9.910;2022-09-29T01:09:00;23.85;;;15.13;;
31652;SDS011;18261;53.648;9.910;2022-09-29T01:11:27;23.80;;;14.80;;
31652;SDS011;18261;53.648;9.910;2022-09-29T01:13:54;21.98;;;14.65;;
31652;SDS011;18261;53.648;9.910;2022-09-29T01:16:22;22.92;;;15.00;;
31652;SDS011;18261;53.648;9.910;2022-09-29T01:18:48;32.10;;;16.13;;
31652;SDS011;18261;53.648;9.910;2022-09-29T01:21:18;30.00;;;17.10;;
31652;SDS011;18261;53.648;9.910;2022-09-29T01:26:25;26.15;;;16.65;;
31652;SDS011;18261;53.648;9.910;2022-09-29T01:36:36;24.40;;;14.75;;
31652;SDS011;18261;53.648;9.910;2022-09-29T01:39:11;25.00;;;15.60;;
31652;SDS011;18261;53.648;9.910;2022-09-29T01:47:00;27.15;;;14.02;;
31652;SDS011;18261;53.648;9.910;2022-09-29T01:49:28;25.83;;;15.30;;
31652;SDS011;18261;53.648;9.910;2022-09-29T01:52:00;22.65;;;15.07;;
31652;SDS011;18261;53.648;9.910;2022-09-29T01:54:30;24.05;;;14.68;;
31652;SDS011;18261;53.648;9.910;2022-09-29T01:57:01;27.92;;;15.95;;
31652;SDS011;18261;53.648;9.910;2022-09-29T01:59:35;25.02;;;15.88;;
31652;SDS011;18261;53.648;9.910;2022-09-29T02:02:04;24.75;;;14.38;;
31652;SDS011;18261;53.648;9.910;2022-09-29T02:04:35;23.15;;;14.23;;
31652;SDS011;18261;53.648;9.910;2022-09-29T02:07:03;25.70;;;14.95;;
31652;SDS011;18261;53.648;9.910;2022-09-29T02:09:33;23.55;;;15.05;;
31652;SDS011;18261;53.648;9.910;2022-09-29T02:12:00;26.40;;;14.85;;
31652;SDS011;18261;53.648;9.910;2022-09-29T02:14:29;24.67;;;14.93;;
31652;SDS011;18261;53.648;9.910;2022-09-29T02:17:04;26.20;;;16.23;;
31652;SDS011;18261;53.648;9.910;2022-09-29T02:19:33;26.60;;;15.20;;
31652;SDS011;18261;53.648;9.910;2022-09-29T02:22:00;20.23;;;13.52;;
31652;SDS011;18261;53.648;9.910;2022-09-29T02:24:26;22.58;;;13.75;;
31652;SDS011;18261;53.648;9.910;2022-09-29T02:26:51;25.98;;;14.98;;
31652;SDS011;18261;53.648;9.910;2022-09-29T02:29:18;22.40;;;14.18;;
31652;SDS011;18261;53.648;9.910;2022-09-29T02:31:44;22.55;;;13.93;;
31652;SDS011;18261;53.648;9.910;2022-09-29T02:34:11;22.88;;;13.55;;
31652;SDS011;18261;53.648;9.910;2022-09-29T02:36:44;25.50;;;13.45;;
31652;SDS011;18261;53.648;9.910;2022-09-29T02:47:05;22.25;;;13.32;;
31652;SDS011;18261;53.648;9.910;2022-09-29T02:52:12;21.08;;;13.20;;
31652;SDS011;18261;53.648;9.910;2022-09-29T02:57:31;20.70;;;14.25;;
31652;SDS011;18261;53.648;9.910;2022-09-29T03:00:05;20.73;;;14.27;;
31652;SDS011;18261;53.648;9.910;2022-09-29T03:02:35;22.02;;;13.38;;
31652;SDS011;18261;53.648;9.910;2022-09-29T03:05:06;18.30;;;13.27;;
31652;SDS011;18261;53.648;9.910;2022-09-29T03:07:34;27.23;;;13.25;;
31652;SDS011;18261;53.648;9.910;2022-09-29T03:10:00;20.38;;;12.75;;
31652;SDS011;18261;53.648;9.910;2022-09-29T03:12:27;22.20;;;13.13;;
31652;SDS011;18261;53.648;9.910;2022-09-29T03:14:53;26.95;;;12.45;;
31652;SDS011;18261;53.648;9.910;2022-09-29T03:17:19;24.35;;;14.30;;
31652;SDS011;18261;53.648;9.910;2022-09-29T03:19:45;22.17;;;13.10;;
31652;SDS011;18261;53.648;9.910;2022-09-29T03:22:11;20.15;;;13.00;;
31652;SDS011;18261;53.648;9.910;2022-09-29T03:24:37;26.42;;;13.43;;
31652;SDS011;18261;53.648;9.910;2022-09-29T03:27:03;24.52;;;14.65;;
31652;SDS011;18261;53.648;9.910;2022-09-29T03:29:29;22.95;;;13.80;;
31652;SDS011;18261;53.648;9.910;2022-09-29T03:31:56;22.88;;;14.10;;
31652;SDS011;18261;53.648;9.910;2022-09-29T03:34:22;22.90;;;13.02;;
31652;SDS011;18261;53.648;9.910;2022-09-29T03:36:48;28.85;;;14.75;;
31652;SDS011;18261;53.648;9.910;2022-09-29T03:39:14;19.42;;;13.77;;
31652;SDS011;18261;53.648;9.910;2022-09-29T03:41:40;19.98;;;14.05;;
31652;SDS011;18261;53.648;9.910;2022-09-29T03:44:06;23.83;;;14.93;;
31652;SDS011;18261;53.648;9.910;2022-09-29T03:46:32;27.77;;;17.23;;
31652;SDS011;18261;53.648;9.910;2022-09-29T03:48:58;24.42;;;16.50;;
31652;SDS011;18261;53.648;9.910;2022-09-29T03:51:24;25.23;;;15.30;;
31652;SDS011;18261;53.648;9.910;2022-09-29T03:53:50;23.88;;;15.23;;
31652;SDS011;18261;53.648;9.910;2022-09-29T03:56:16;23.52;;;14.38;;
31652;SDS011;18261;53.648;9.910;2022-09-29T03:58:42;25.25;;;15.02;;
31652;SDS011;18261;53.648;9.910;2022-09-29T04:01:08;19.60;;;13.00;;
31652;SDS011;18261;53.648;9.910;2022-09-29T04:03:34;22.88;;;14.00;;
31652;SDS011;18261;53.648;9.910;2022-09-29T04:06:00;23.63;;;14.77;;
31652;SDS011;18261;53.648;9.910;2022-09-29T04:08:26;24.45;;;15.13;;
31652;SDS011;18261;53.648;9.910;2022-09-29T04:10:52;23.65;;;14.00;;
31652;SDS011;18261;53.648;9.910;2022-09-29T04:13:18;24.67;;;14.50;;
31652;SDS011;18261;53.648;9.910;2022-09-29T04:15:45;26.17;;;14.77;;
31652;SDS011;18261;53.648;9.910;2022-09-29T04:18:11;26.10;;;16.20;;
31652;SDS011;18261;53.648;9.910;2022-09-29T04:20:37;29.58;;;14.60;;
31652;SDS011;18261;53.648;9.910;2022-09-29T04:23:03;28.73;;;15.88;;
31652;SDS011;18261;53.648;9.910;2022-09-29T04:25:30;25.55;;;15.70;;
31652;SDS011;18261;53.648;9.910;2022-09-29T04:27:56;28.23;;;16.90;;
31652;SDS011;18261;53.648;9.910;2022-09-29T04:30:22;26.00;;;15.75;;
31652;SDS011;18261;53.648;9.910;2022-09-29T04:32:48;29.60;;;15.85;;
31652;SDS011;18261;53.648;9.910;2022-09-29T04:35:14;25.02;;;15.38;;
31652;SDS011;18261;53.648;9.910;2022-09-29T04:37:40;21.90;;;14.40;;
31652;SDS011;18261;53.648;9.910;2022-09-29T04:40:06;29.90;;;15.68;;
31652;SDS011;18261;53.648;9.910;2022-09-29T04:42:32;25.88;;;16.23;;
31652;SDS011;18261;53.648;9.910;2022-09-29T04:44:58;31.92;;;18.00;;
31652;SDS011;18261;53.648;9.910;2022-09-29T04:47:24;30.63;;;17.95;;
31652;SDS011;18261;53.648;9.910;2022-09-29T04:49:50;28.65;;;19.08;;
31652;SDS011;18261;53.648;9.910;2022-09-29T04:52:16;29.35;;;19.20;;
31652;SDS011;18261;53.648;9.910;2022-09-29T04:54:42;37.28;;;20.70;;
31652;SDS011;18261;53.648;9.910;2022-09-29T04:57:08;29.35;;;18.58;;
31652;SDS011;18261;53.648;9.910;2022-09-29T04:59:34;34.65;;;19.70;;
31652;SDS011;18261;53.648;9.910;2022-09-29T05:02:00;30.30;;;19.50;;
31652;SDS011;18261;53.648;9.910;2022-09-29T05:04:26;38.75;;;21.25;;
31652;SDS011;18261;53.648;9.910;2022-09-29T05:06:52;34.67;;;19.75;;
31652;SDS011;18261;53.648;9.910;2022-09-29T05:09:18;37.72;;;20.20;;
31652;SDS011;18261;53.648;9.910;2022-09-29T05:11:44;33.75;;;21.10;;
31652;SDS011;18261;53.648;9.910;2022-09-29T05:14:10;38.90;;;20.90;;
31652;SDS011;18261;53.648;9.910;2022-09-29T05:16:36;31.55;;;20.42;;
31652;SDS011;18261;53.648;9.910;2022-09-29T05:19:02;41.25;;;20.50;;
31652;SDS011;18261;53.648;9.910;2022-09-29T05:21:28;37.55;;;21.25;;
31652;SDS011;18261;53.648;9.910;2022-09-29T05:23:54;38.45;;;21.45;;
31652;SDS011;18261;53.648;9.910;2022-09-29T05:26:20;35.47;;;21.55;;
31652;SDS011;18261;53.648;9.910;2022-09-29T05:28:46;36.78;;;21.42;;
31652;SDS011;18261;53.648;9.910;2022-09-29T05:31:13;39.53;;;22.33;;
31652;SDS011;18261;53.648;9.910;2022-09-29T05:33:39;39.40;;;22.02;;
31652;SDS011;18261;53.648;9.910;2022-09-29T05:36:06;40.72;;;24.40;;
31652;SDS011;18261;53.648;9.910;2022-09-29T05:38:33;39.85;;;22.95;;
31652;SDS011;18261;53.648;9.910;2022-09-29T05:41:02;32.83;;;21.48;;
31652;SDS011;18261;53.648;9.910;2022-09-29T05:43:28;37.45;;;22.45;;
31652;SDS011;18261;53.648;9.910;2022-09-29T05:46:01;38.13;;;22.52;;
31652;SDS011;18261;53.648;9.910;2022-09-29T05:48:27;36.15;;;21.58;;
31652;SDS011;18261;53.648;9.910;2022-09-29T05:50:57;40.85;;;21.77;;
31652;SDS011;18261;53.648;9.910;2022-09-29T05:53:23;32.60;;;20.80;;
31652;SDS011;18261;53.648;9.910;2022-09-29T05:55:49;36.45;;;22.33;;
31652;SDS011;18261;53.648;9.910;2022-09-29T05:58:15;37.35;;;22.15;;
31652;SDS011;18261;53.648;9.910;2022-09-29T06:00:41;38.60;;;22.73;;
31652;SDS011;18261;53.648;9.910;2022-09-29T06:03:07;42.83;;;22.90;;
31652;SDS011;18261;53.648;9.910;2022-09-29T06:05:36;39.58;;;23.95;;
31652;SDS011;18261;53.648;9.910;2022-09-29T06:08:02;46.08;;;24.60;;
31652;SDS011;18261;53.648;9.910;2022-09-29T06:10:29;44.92;;;24.30;;
31652;SDS011;18261;53.648;9.910;2022-09-29T06:12:55;42.03;;;24.58;;
31652;SDS011;18261;53.648;9.910;2022-09-29T06:15:21;41.97;;;23.45;;
31652;SDS011;18261;53.648;9.910;2022-09-29T06:17:53;39.80;;;23.45;;
31652;SDS011;18261;53.648;9.910;2022-09-29T06:20:19;36.40;;;23.77;;
31652;SDS011;18261;53.648;9.910;2022-09-29T06:22:45;42.22;;;25.50;;
31652;SDS011;18261;53.648;9.910;2022-09-29T06:25:12;37.95;;;24.58;;
31652;SDS011;18261;53.648;9.910;2022-09-29T06:27:38;39.80;;;24.77;;
31652;SDS011;18261;53.648;9.910;2022-09-29T06:30:04;39.30;;;24.83;;
31652;SDS011;18261;53.648;9.910;2022-09-29T06:32:30;37.88;;;24.42;;
31652;SDS011;18261;53.648;9.910;2022-09-29T06:34:58;44.10;;;26.23;;
31652;SDS011;18261;53.648;9.910;2022-09-29T06:37:42;43.25;;;24.63;;
31652;SDS011;18261;53.648;9.910;2022-09-29T06:40:10;44.17;;;25.95;;
31652;SDS011;18261;53.648;9.910;2022-09-29T06:42:36;40.78;;;25.15;;
31652;SDS011;18261;53.648;9.910;2022-09-29T06:45:03;44.78;;;26.20;;
31652;SDS011;18261;53.648;9.910;2022-09-29T06:47:29;39.25;;;25.02;;
31652;SDS011;18261;53.648;9.910;2022-09-29T06:49:55;41.17;;;25.95;;
31652;SDS011;18261;53.648;9.910;2022-09-29T06:52:25;39.58;;;24.50;;
31652;SDS011;18261;53.648;9.910;2022-09-29T06:54:51;38.47;;;23.80;;
31652;SDS011;18261;53.648;9.910;2022-09-29T06:57:17;38.80;;;24.95;;
31652;SDS011;18261;53.648;9.910;2022-09-29T06:59:43;35.45;;;24.23;;
31652;SDS011;18261;53.648;9.910;2022-09-29T07:02:10;38.22;;;24.23;;
31652;SDS011;18261;53.648;9.910;2022-09-29T07:04:36;34.78;;;24.27;;
31652;SDS011;18261;53.648;9.910;2022-09-29T07:07:02;33.78;;;22.73;;
31652;SDS011;18261;53.648;9.910;2022-09-29T07:09:28;35.47;;;22.40;;
31652;SDS011;18261;53.648;9.910;2022-09-29T07:11:54;37.90;;;22.17;;
31652;SDS011;18261;53.648;9.910;2022-09-29T07:14:21;36.97;;;22.20;;
31652;SDS011;18261;53.648;9.910;2022-09-29T07:16:48;36.05;;;22.02;;
31652;SDS011;18261;53.648;9.910;2022-09-29T07:19:15;30.70;;;20.30;;
31652;SDS011;18261;53.648;9.910;2022-09-29T07:21:42;35.25;;;20.77;;
31652;SDS011;18261;53.648;9.910;2022-09-29T07:24:08;31.92;;;21.20;;
31652;SDS011;18261;53.648;9.910;2022-09-29T07:26:34;30.08;;;19.38;;
31652;SDS011;18261;53.648;9.910;2022-09-29T07:29:00;30.02;;;20.27;;
31652;SDS011;18261;53.648;9.910;2022-09-29T07:31:26;29.95;;;20.45;;
31652;SDS011;18261;53.648;9.910;2022-09-29T07:33:53;27.00;;;19.10;;
31652;SDS011;18261;53.648;9.910;2022-09-29T07:36:21;29.88;;;19.77;;
31652;SDS011;18261;53.648;9.910;2022-09-29T07:38:49;31.73;;;20.02;;
31652;SDS011;18261;53.648;9.910;2022-09-29T07:41:16;34.28;;;20.48;;
31652;SDS011;18261;53.648;9.910;2022-09-29T07:43:42;35.08;;;19.42;;
31652;SDS011;18261;53.648;9.910;2022-09-29T07:46:08;29.48;;;18.73;;
31652;SDS011;18261;53.648;9.910;2022-09-29T07:48:35;33.92;;;20.63;;
31652;SDS011;18261;53.648;9.910;2022-09-29T07:51:20;31.25;;;20.13;;
31652;SDS011;18261;53.648;9.910;2022-09-29T07:53:46;29.23;;;19.00;;
31652;SDS011;18261;53.648;9.910;2022-09-29T07:56:16;33.90;;;22.27;;
31652;SDS011;18261;53.648;9.910;2022-09-29T07:58:43;27.42;;;18.95;;
31652;SDS011;18261;53.648;9.910;2022-09-29T08:01:10;27.48;;;19.00;;
31652;SDS011;18261;53.648;9.910;2022-09-29T08:03:38;26.30;;;17.88;;
31652;SDS011;18261;53.648;9.910;2022-09-29T08:06:05;26.92;;;19.27;;
31652;SDS011;18261;53.648;9.910;2022-09-29T08:08:31;27.38;;;18.02;;
31652;SDS011;18261;53.648;9.910;2022-09-29T08:11:05;27.52;;;19.15;;
31652;SDS011;18261;53.648;9.910;2022-09-29T08:13:31;26.67;;;18.73;;
31652;SDS011;18261;53.648;9.910;2022-09-29T08:15:59;27.92;;;18.75;;
31652;SDS011;18261;53.648;9.910;2022-09-29T08:18:26;28.48;;;18.25;;
31652;SDS011;18261;53.648;9.910;2022-09-29T08:20:52;30.50;;;18.88;;
31652;SDS011;18261;53.648;9.910;2022-09-29T08:23:19;29.48;;;18.27;;
31652;SDS011;18261;53.648;9.910;2022-09-29T08:25:44;25.00;;;18.20;;
31652;SDS011;18261;53.648;9.910;2022-09-29T08:28:10;26.40;;;18.63;;
31652;SDS011;18261;53.648;9.910;2022-09-29T08:30:37;27.58;;;18.13;;
31652;SDS011;18261;53.648;9.910;2022-09-29T08:33:03;26.40;;;18.08;;
31652;SDS011;18261;53.648;9.910;2022-09-29T08:35:32;27.80;;;19.08;;
31652;SDS011;18261;53.648;9.910;2022-09-29T08:37:58;25.23;;;18.02;;
31652;SDS011;18261;53.648;9.910;2022-09-29T08:40:28;29.65;;;18.70;;
31652;SDS011;18261;53.648;9.910;2022-09-29T08:42:59;30.13;;;18.00;;
31652;SDS011;18261;53.648;9.910;2022-09-29T08:45:32;26.05;;;17.90;;
31652;SDS011;18261;53.648;9.910;2022-09-29T08:48:02;23.85;;;16.98;;
31652;SDS011;18261;53.648;9.910;2022-09-29T08:50:32;30.67;;;18.30;;
31652;SDS011;18261;53.648;9.910;2022-09-29T08:53:02;24.92;;;16.88;;
31652;SDS011;18261;53.648;9.910;2022-09-29T08:57:56;40.03;;;20.92;;
31652;SDS011;18261;53.648;9.910;2022-09-29T09:00:27;21.63;;;15.95;;
31652;SDS011;18261;53.648;9.910;2022-09-29T09:08:02;23.35;;;15.15;;
31652;SDS011;18261;53.648;9.910;2022-09-29T09:13:01;26.35;;;15.02;;
31652;SDS011;18261;53.648;9.910;2022-09-29T09:23:19;19.52;;;13.40;;
31652;SDS011;18261;53.648;9.910;2022-09-29T09:25:50;17.67;;;13.05;;
31652;SDS011;18261;53.648;9.910;2022-09-29T09:28:18;18.85;;;13.43;;
31652;SDS011;18261;53.648;9.910;2022-09-29T09:33:15;21.83;;;13.57;;
31652;SDS011;18261;53.648;9.910;2022-09-29T09:35:45;17.27;;;12.80;;
31652;SDS011;18261;53.648;9.910;2022-09-29T09:38:19;19.08;;;12.30;;
31652;SDS011;18261;53.648;9.910;2022-09-29T09:40:47;18.67;;;12.52;;
31652;SDS011;18261;53.648;9.910;2022-09-29T09:43:16;20.33;;;12.55;;
31652;SDS011;18261;53.648;9.910;2022-09-29T09:45:46;16.60;;;11.80;;
31652;SDS011;18261;53.648;9.910;2022-09-29T09:50:45;92.20;;;38.60;;
31652;SDS011;18261;53.648;9.910;2022-09-29T09:53:35;24.58;;;15.18;;
31652;SDS011;18261;53.648;9.910;2022-09-29T10:01:15;16.63;;;10.35;;
31652;SDS011;18261;53.648;9.910;2022-09-29T10:03:41;13.82;;;10.63;;
31652;SDS011;18261;53.648;9.910;2022-09-29T10:06:07;17.48;;;11.23;;
31652;SDS011;18261;53.648;9.910;2022-09-29T10:08:34;16.80;;;11.23;;
31652;SDS011;18261;53.648;9.910;2022-09-29T10:11:03;14.63;;;11.25;;
31652;SDS011;18261;53.648;9.910;2022-09-29T10:13:33;22.73;;;12.07;;
31652;SDS011;18261;53.648;9.910;2022-09-29T10:16:00;18.23;;;12.10;;
31652;SDS011;18261;53.648;9.910;2022-09-29T10:18:40;17.35;;;11.38;;
31652;SDS011;18261;53.648;9.910;2022-09-29T10:21:52;18.10;;;12.38;;
31652;SDS011;18261;53.648;9.910;2022-09-29T10:23:58;18.05;;;12.18;;
31652;SDS011;18261;53.648;9.910;2022-09-29T10:28:57;19.60;;;13.43;;
31652;SDS011;18261;53.648;9.910;2022-09-29T10:33:55;19.15;;;12.50;;
31652;SDS011;18261;53.648;9.910;2022-09-29T10:36:22;16.95;;;12.70;;
31652;SDS011;18261;53.648;9.910;2022-09-29T10:38:49;17.75;;;13.32;;
31652;SDS011;18261;53.648;9.910;2022-09-29T10:41:16;21.13;;;12.98;;
31652;SDS011;18261;53.648;9.910;2022-09-29T10:43:43;19.52;;;13.88;;
31652;SDS011;18261;53.648;9.910;2022-09-29T10:49:08;21.13;;;14.40;;
31652;SDS011;18261;53.648;9.910;2022-09-29T10:51:35;21.88;;;14.60;;
31652;SDS011;18261;53.648;9.910;2022-09-29T10:54:08;20.25;;;13.85;;
31652;SDS011;18261;53.648;9.910;2022-09-29T10:56:34;20.75;;;14.13;;
31652;SDS011;18261;53.648;9.910;2022-09-29T10:59:00;21.25;;;13.55;;
31652;SDS011;18261;53.648;9.910;2022-09-29T11:01:27;20.00;;;14.40;;
31652;SDS011;18261;53.648;9.910;2022-09-29T11:03:58;20.98;;;14.02;;
31652;SDS011;18261;53.648;9.910;2022-09-29T11:06:31;24.13;;;13.98;;
31652;SDS011;18261;53.648;9.910;2022-09-29T11:11:33;23.35;;;13.60;;
31652;SDS011;18261;53.648;9.910;2022-09-29T11:13:59;19.40;;;12.48;;
31652;SDS011;18261;53.648;9.910;2022-09-29T11:16:30;20.90;;;14.13;;
31652;SDS011;18261;53.648;9.910;2022-09-29T11:19:00;22.65;;;14.13;;
31652;SDS011;18261;53.648;9.910;2022-09-29T11:21:34;19.92;;;13.57;;
31652;SDS011;18261;53.648;9.910;2022-09-29T11:24:05;21.92;;;13.15;;
31652;SDS011;18261;53.648;9.910;2022-09-29T11:26:39;18.15;;;11.85;;
31652;SDS011;18261;53.648;9.910;2022-09-29T11:45:09;16.65;;;10.20;;
31652;SDS011;18261;53.648;9.910;2022-09-29T11:50:29;16.85;;;11.95;;
31652;SDS011;18261;53.648;9.910;2022-09-29T11:55:41;19.60;;;12.23;;
31652;SDS011;18261;53.648;9.910;2022-09-29T12:05:48;17.95;;;10.70;;
31652;SDS011;18261;53.648;9.910;2022-09-29T12:13:36;20.77;;;11.77;;
31652;SDS011;18261;53.648;9.910;2022-09-29T12:16:10;13.02;;;8.18;;
31652;SDS011;18261;53.648;9.910;2022-09-29T12:18:41;11.05;;;6.40;;
31652;SDS011;18261;53.648;9.910;2022-09-29T12:21:08;12.38;;;6.90;;
31652;SDS011;18261;53.648;9.910;2022-09-29T12:23:36;11.23;;;6.60;;
31652;SDS011;18261;53.648;9.910;2022-09-29T12:26:06;10.57;;;6.75;;
31652;SDS011;18261;53.648;9.910;2022-09-29T12:28:34;7.85;;;5.43;;
31652;SDS011;18261;53.648;9.910;2022-09-29T12:31:03;9.68;;;5.20;;
31652;SDS011;18261;53.648;9.910;2022-09-29T12:33:55;8.75;;;6.25;;
31652;SDS011;18261;53.648;9.910;2022-09-29T12:36:27;9.50;;;5.47;;
31652;SDS011;18261;53.648;9.910;2022-09-29T12:39:19;7.45;;;5.60;;
31652;SDS011;18261;53.648;9.910;2022-09-29T12:41:51;9.15;;;5.55;;
31652;SDS011;18261;53.648;9.910;2022-09-29T12:44:24;10.07;;;5.75;;
31652;SDS011;18261;53.648;9.910;2022-09-29T12:46:56;13.32;;;6.00;;
31652;SDS011;18261;53.648;9.910;2022-09-29T12:49:38;8.05;;;6.00;;
31652;SDS011;18261;53.648;9.910;2022-09-29T12:52:11;10.07;;;6.72;;
31652;SDS011;18261;53.648;9.910;2022-09-29T12:57:10;11.85;;;6.80;;
31652;SDS011;18261;53.648;9.910;2022-09-29T13:10:01;15.15;;;8.30;;
31652;SDS011;18261;53.648;9.910;2022-09-29T13:20:19;14.50;;;9.10;;
31652;SDS011;18261;53.648;9.910;2022-09-29T13:23:04;12.23;;;8.88;;
31652;SDS011;18261;53.648;9.910;2022-09-29T13:26:00;13.07;;;9.60;;
31652;SDS011;18261;53.648;9.910;2022-09-29T13:30:51;14.25;;;10.30;;
31652;SDS011;18261;53.648;9.910;2022-09-29T13:33:24;15.20;;;11.23;;
31652;SDS011;18261;53.648;9.910;2022-09-29T13:35:50;18.63;;;12.07;;
31652;SDS011;18261;53.648;9.910;2022-09-29T13:38:20;16.35;;;10.85;;
31652;SDS011;18261;53.648;9.910;2022-09-29T13:49:10;18.50;;;12.82;;
31652;SDS011;18261;53.648;9.910;2022-09-29T13:54:28;17.38;;;12.90;;
31652;SDS011;18261;53.648;9.910;2022-09-29T13:59:24;19.80;;;13.73;;
31652;SDS011;18261;53.648;9.910;2022-09-29T14:01:52;15.85;;;12.48;;
31652;SDS011;18261;53.648;9.910;2022-09-29T14:04:32;21.15;;;13.40;;
31652;SDS011;18261;53.648;9.910;2022-09-29T14:07:00;15.80;;;11.15;;
31652;SDS011;18261;53.648;9.910;2022-09-29T14:09:27;19.85;;;12.38;;
31652;SDS011;18261;53.648;9.910;2022-09-29T14:11:57;23.10;;;13.55;;
31652;SDS011;18261;53.648;9.910;2022-09-29T14:17:27;21.75;;;14.05;;
31652;SDS011;18261;53.648;9.910;2022-09-29T14:33:07;20.13;;;13.98;;
31652;SDS011;18261;53.648;9.910;2022-09-29T14:35:41;24.05;;;14.32;;
31652;SDS011;18261;53.648;9.910;2022-09-29T14:40:34;20.15;;;14.07;;
31652;SDS011;18261;53.648;9.910;2022-09-29T14:43:13;24.70;;;14.88;;
31652;SDS011;18261;53.648;9.910;2022-09-29T14:45:47;26.05;;;16.85;;
31652;SDS011;18261;53.648;9.910;2022-09-29T14:49:18;21.40;;;16.48;;
31652;SDS011;18261;53.648;9.910;2022-09-29T14:51:44;22.02;;;15.35;;
31652;SDS011;18261;53.648;9.910;2022-09-29T15:00:15;25.52;;;15.75;;
31652;SDS011;18261;53.648;9.910;2022-09-29T15:02:43;24.70;;;16.80;;
31652;SDS011;18261;53.648;9.910;2022-09-29T15:05:11;28.67;;;17.38;;
31652;SDS011;18261;53.648;9.910;2022-09-29T15:07:40;29.10;;;20.58;;
31652;SDS011;18261;53.648;9.910;2022-09-29T15:10:21;25.02;;;17.10;;
31652;SDS011;18261;53.648;9.910;2022-09-29T15:12:47;24.20;;;16.95;;
31652;SDS011;18261;53.648;9.910;2022-09-29T15:15:30;30.52;;;18.20;;
31652;SDS011;18261;53.648;9.910;2022-09-29T15:18:02;30.48;;;17.38;;
31652;SDS011;18261;53.648;9.910;2022-09-29T15:20:33;21.45;;;16.08;;
31652;SDS011;18261;53.648;9.910;2022-09-29T15:25:35;24.00;;;16.55;;
31652;SDS011;18261;53.648;9.910;2022-09-29T15:28:05;24.48;;;17.48;;
31652;SDS011;18261;53.648;9.910;2022-09-29T15:30:35;27.08;;;17.17;;
31652;SDS011;18261;53.648;9.910;2022-09-29T15:35:44;28.42;;;18.05;;
31652;SDS011;18261;53.648;9.910;2022-09-29T15:40:38;48.63;;;29.10;;
31652;SDS011;18261;53.648;9.910;2022-09-29T15:43:23;32.35;;;18.75;;
31652;SDS011;18261;53.648;9.910;2022-09-29T15:45:56;26.40;;;16.40;;
31652;SDS011;18261;53.648;9.910;2022-09-29T15:48:23;24.33;;;15.52;;
31652;SDS011;18261;53.648;9.910;2022-09-29T15:50:50;27.75;;;15.93;;
31652;SDS011;18261;53.648;9.910;2022-09-29T15:53:19;20.60;;;14.48;;
31652;SDS011;18261;53.648;9.910;2022-09-29T15:55:45;18.58;;;13.55;;
31652;SDS011;18261;53.648;9.910;2022-09-29T16:00:50;21.92;;;13.25;;
31652;SDS011;18261;53.648;9.910;2022-09-29T16:03:30;17.88;;;12.02;;
31652;SDS011;18261;53.648;9.910;2022-09-29T16:06:19;16.00;;;11.77;;
31652;SDS011;18261;53.648;9.910;2022-09-29T16:08:48;19.15;;;13.05;;
31652;SDS011;18261;53.648;9.910;2022-09-29T16:11:19;24.92;;;12.35;;
31652;SDS011;18261;53.648;9.910;2022-09-29T16:13:47;16.77;;;11.18;;
31652;SDS011;18261;53.648;9.910;2022-09-29T16:16:14;21.88;;;14.63;;
31652;SDS011;18261;53.648;9.910;2022-09-29T16:18:45;18.35;;;11.75;;
31652;SDS011;18261;53.648;9.910;2022-09-29T16:21:14;22.25;;;14.02;;
31652;SDS011;18261;53.648;9.910;2022-09-29T16:23:44;20.38;;;12.93;;
31652;SDS011;18261;53.648;9.910;2022-09-29T16:26:16;24.25;;;14.27;;
31652;SDS011;18261;53.648;9.910;2022-09-29T16:31:24;15.38;;;10.48;;
31652;SDS011;18261;53.648;9.910;2022-09-29T16:33:51;16.33;;;9.95;;
31652;SDS011;18261;53.648;9.910;2022-09-29T16:36:21;13.40;;;9.50;;
31652;SDS011;18261;53.648;9.910;2022-09-29T16:38:49;14.75;;;10.35;;
31652;SDS011;18261;53.648;9.910;2022-09-29T16:41:30;15.68;;;10.07;;
31652;SDS011;18261;53.648;9.910;2022-09-29T16:44:02;14.80;;;10.52;;
31652;SDS011;18261;53.648;9.910;2022-09-29T16:46:33;17.08;;;10.30;;
31652;SDS011;18261;53.648;9.910;2022-09-29T16:49:10;13.68;;;9.63;;
31652;SDS011;18261;53.648;9.910;2022-09-29T16:51:38;15.85;;;10.65;;
31652;SDS011;18261;53.648;9.910;2022-09-29T16:54:07;13.27;;;10.27;;
31652;SDS011;18261;53.648;9.910;2022-09-29T16:56:34;14.65;;;10.15;;
31652;SDS011;18261;53.648;9.910;2022-09-29T16:59:02;13.93;;;10.45;;
31652;SDS011;18261;53.648;9.910;2022-09-29T17:01:28;16.65;;;11.50;;
31652;SDS011;18261;53.648;9.910;2022-09-29T17:03:54;25.13;;;12.73;;
31652;SDS011;18261;53.648;9.910;2022-09-29T17:06:20;17.50;;;12.48;;
31652;SDS011;18261;53.648;9.910;2022-09-29T17:08:46;14.57;;;10.43;;
31652;SDS011;18261;53.648;9.910;2022-09-29T17:11:12;18.13;;;11.85;;
31652;SDS011;18261;53.648;9.910;2022-09-29T17:13:38;19.80;;;12.60;;
31652;SDS011;18261;53.648;9.910;2022-09-29T17:16:04;17.25;;;12.00;;
31652;SDS011;18261;53.648;9.910;2022-09-29T17:18:34;13.63;;;10.80;;
31652;SDS011;18261;53.648;9.910;2022-09-29T17:21:00;15.20;;;11.32;;
31652;SDS011;18261;53.648;9.910;2022-09-29T17:23:26;16.25;;;10.93;;
31652;SDS011;18261;53.648;9.910;2022-09-29T17:25:52;18.00;;;10.55;;
31652;SDS011;18261;53.648;9.910;2022-09-29T17:28:38;15.57;;;10.30;;
31652;SDS011;18261;53.648;9.910;2022-09-29T17:31:04;13.68;;;10.48;;
31652;SDS011;18261;53.648;9.910;2022-09-29T17:33:30;18.08;;;11.82;;